createdAt,value
2023-04-12T03:35:15.669Z,23.3
2023-04-12T03:36:17.976Z,23.4
2023-04-12T03:37:20.104Z,23.3
2023-04-12T03:38:22.089Z,23.2
2023-04-12T03:39:23.986Z,23.6
2023-04-12T03:40:25.897Z,23.3
2023-04-12T03:41:27.791Z,23.3
2023-04-12T03:42:33.375Z,23.2
2023-04-12T03:43:35.007Z,23.4
2023-04-12T03:44:36.834Z,23.3
2023-04-12T03:45:38.602Z,23.2
2023-04-12T03:46:40.397Z,23.2
2023-04-12T03:47:42.041Z,23.3
2023-04-12T03:48:43.957Z,23.3
2023-04-12T03:49:51.701Z,23.4
2023-04-12T03:50:50.517Z,23.4
2023-04-12T03:51:52.208Z,23.3
2023-04-12T03:52:54.146Z,23.2
2023-04-12T03:53:56.225Z,23.3
2023-04-12T03:54:58.070Z,23.3
2023-04-12T03:55:59.962Z,23.2
2023-04-12T03:57:01.858Z,23.2
2023-04-12T03:58:04.330Z,23.3
2023-04-12T03:59:06.107Z,23.3
2023-04-12T04:00:07.986Z,23.3
2023-04-12T04:01:09.861Z,23.3
2023-04-12T04:02:11.791Z,23.3
2023-04-12T04:03:13.622Z,23.5
2023-04-12T04:04:15.576Z,23.2
2023-04-12T04:05:17.452Z,23.3
2023-04-12T04:06:19.323Z,23.4
2023-04-12T04:07:21.185Z,23.3
2023-04-12T04:08:22.983Z,23.5
2023-04-12T04:09:24.712Z,23.3
2023-04-12T04:10:26.249Z,23.2
2023-04-12T04:11:28.120Z,23.4
2023-04-12T04:12:29.846Z,23.2
2023-04-12T04:13:31.789Z,23.3
2023-04-12T04:14:33.674Z,23.3
2023-04-12T04:15:35.268Z,23.4
2023-04-12T04:16:37.037Z,23.5
2023-04-12T04:17:38.997Z,23.3
2023-04-12T04:18:40.430Z,23.4
2023-04-12T04:19:41.988Z,23.4
2023-04-12T04:20:43.861Z,23.5
2023-04-12T04:21:45.617Z,23.4
2023-04-12T04:22:47.501Z,23.3
2023-04-12T04:23:49.388Z,23.4
2023-04-12T04:24:51.265Z,23.2
2023-04-12T04:25:52.983Z,23.2
2023-04-12T04:26:54.634Z,23.3
2023-04-12T04:27:56.158Z,23.2
2023-04-12T04:28:58.129Z,23.3
2023-04-12T04:29:59.902Z,23.3
2023-04-12T04:31:01.427Z,23.4
2023-04-12T04:32:03.418Z,23.1
2023-04-12T04:33:05.355Z,23.3
2023-04-12T04:34:07.104Z,23.2
2023-04-12T04:35:08.623Z,23.4
2023-04-12T04:36:10.308Z,23.4
2023-04-12T04:37:12.034Z,23.5
2023-04-12T04:38:13.891Z,23.2
2023-04-12T04:39:15.780Z,23.2
2023-04-12T04:40:17.659Z,23.2
2023-04-12T04:41:19.521Z,23.2
2023-04-12T04:42:21.497Z,23.2
2023-04-12T04:43:23.181Z,23.3
2023-04-12T04:44:25.178Z,23.3
2023-04-12T04:45:26.965Z,23.3
2023-04-12T04:46:28.867Z,23.3
2023-04-12T04:47:30.722Z,23.3
2023-04-12T04:48:32.361Z,23.4
2023-04-12T04:49:34.047Z,23.3
2023-04-12T04:50:35.734Z,23.2
2023-04-12T04:51:37.556Z,23.4
2023-04-12T04:52:39.495Z,23.4
2023-04-12T04:53:41.205Z,23.3
2023-04-12T04:54:42.910Z,23.3
2023-04-12T04:55:44.765Z,23.2
2023-04-12T04:56:46.632Z,23.4
2023-04-12T04:57:48.496Z,23.1
2023-04-12T04:58:50.364Z,23.3
2023-04-12T04:59:52.272Z,23.3
2023-04-12T05:00:54.016Z,23.1
2023-04-12T05:01:55.585Z,23.2
2023-04-12T05:02:57.315Z,23.3
2023-04-12T05:03:59.025Z,23.2
2023-04-12T05:05:00.806Z,23.3
2023-04-12T05:06:02.487Z,23.2
2023-04-12T05:07:04.148Z,23.2
2023-04-12T05:08:05.869Z,23.1
2023-04-12T05:09:07.526Z,23.2
2023-04-12T05:10:09.117Z,23.2
2023-04-12T05:11:10.990Z,23.1
2023-04-12T05:12:12.732Z,23.2
2023-04-12T05:13:14.452Z,23.2
2023-04-12T05:14:16.200Z,23
2023-04-12T05:15:17.925Z,23.1
2023-04-12T05:16:19.728Z,23.1
2023-04-12T05:17:21.622Z,23.1
2023-04-12T05:18:23.179Z,23.1
2023-04-12T05:19:24.787Z,23.2
2023-04-12T05:20:26.590Z,23.2
2023-04-12T05:21:28.316Z,23
2023-04-12T05:22:30.124Z,23.2
2023-04-12T05:23:31.983Z,23
2023-04-12T05:24:33.661Z,23
2023-04-12T05:25:35.526Z,23.1
2023-04-12T05:26:37.223Z,23.1
2023-04-12T05:27:39.002Z,23.1
2023-04-12T05:28:41.005Z,23.2
2023-04-12T05:29:43.095Z,23.1
2023-04-12T05:30:45.269Z,23.2
2023-04-12T05:31:47.446Z,23
2023-04-12T05:32:49.398Z,23
2023-04-12T05:33:51.243Z,23
2023-04-12T05:34:53.127Z,23.1
2023-04-12T05:35:54.540Z,23.1
2023-04-12T05:36:56.300Z,23.1
2023-04-12T05:38:59.781Z,23.1
2023-04-12T05:51:27.989Z,22.9
2023-04-12T05:52:25.419Z,22.9
2023-04-12T05:53:27.404Z,22.9
2023-04-12T05:54:29.378Z,23
2023-04-12T05:55:31.295Z,22.9
2023-04-12T05:56:33.435Z,23
2023-04-12T05:57:35.406Z,22.9
2023-04-12T05:58:37.042Z,22.8
2023-04-12T05:59:39.019Z,22.9
2023-04-12T06:00:40.814Z,23
2023-04-12T06:01:42.965Z,23
2023-04-12T06:02:45.080Z,23
2023-04-12T06:03:47.735Z,23
2023-04-12T06:04:51.592Z,23
2023-04-12T06:05:54.420Z,22.9
2023-04-12T06:06:56.438Z,22.9
2023-04-12T06:07:58.285Z,23
2023-04-12T06:09:00.099Z,23
2023-04-12T06:10:01.825Z,22.9
2023-04-12T06:11:03.603Z,23
2023-04-12T06:12:05.322Z,23
2023-04-12T06:13:07.321Z,22.9
2023-04-12T06:14:10.594Z,23
2023-04-12T06:15:14.088Z,22.9
2023-04-12T06:16:16.162Z,22.9
2023-04-12T06:17:18.394Z,23
2023-04-12T06:18:20.105Z,22.9
2023-04-12T06:26:39.554Z,23
2023-04-12T06:27:38.595Z,22.9
2023-04-12T06:28:40.586Z,22.9
2023-04-12T06:29:42.654Z,23
2023-04-12T06:30:44.369Z,23
2023-04-12T06:31:46.444Z,23.1
2023-04-12T06:32:48.843Z,22.9
2023-04-12T06:33:50.855Z,22.9
2023-04-12T06:34:52.443Z,23
2023-04-12T06:35:54.088Z,22.9
2023-04-12T06:36:56.007Z,22.9
2023-04-12T06:38:59.579Z,23
2023-04-12T06:40:01.175Z,22.8
2023-04-12T07:33:31.746Z,22.9
2023-04-12T07:34:33.695Z,23
2023-04-12T07:48:57.935Z,22.9
2023-04-12T08:04:24.199Z,22.9
2023-04-12T08:06:30.639Z,22.9
2023-04-12T08:07:33.082Z,23
2023-04-12T08:08:34.719Z,23
2023-04-12T08:09:36.617Z,22.9
2023-04-12T08:10:38.680Z,22.9
2023-04-12T08:11:40.729Z,23
2023-04-12T08:12:42.336Z,22.9
2023-04-12T08:13:44.295Z,23
2023-04-12T08:15:48.095Z,22.9
2023-04-12T08:16:50.103Z,23
2023-04-12T08:17:51.867Z,23
2023-04-12T08:18:53.609Z,23
2023-04-12T08:19:55.352Z,23
2023-04-12T08:38:37.578Z,23.1
2023-04-12T08:39:32.209Z,23
2023-04-12T08:40:34.226Z,23
2023-04-12T08:41:37.093Z,22.9
2023-04-12T08:42:40.764Z,23.1
2023-04-12T08:43:42.576Z,23
2023-04-12T08:44:44.384Z,23
2023-04-12T08:45:46.172Z,23
2023-04-12T08:46:48.175Z,23
2023-04-12T08:47:50.720Z,22.9
2023-04-12T08:48:52.725Z,22.9
2023-04-12T08:49:54.361Z,23
2023-04-12T08:50:56.358Z,23
2023-04-12T08:51:58.485Z,22.9
2023-04-12T08:53:00.333Z,23
2023-04-12T08:54:02.386Z,22.8
2023-04-12T08:55:04.436Z,22.9
2023-04-12T08:56:06.102Z,23
2023-04-12T08:57:08.086Z,23
2023-04-12T08:58:10.093Z,23.1
2023-04-12T08:59:12.073Z,22.9
2023-04-12T09:00:13.670Z,23
2023-04-12T09:01:15.522Z,22.8
2023-04-12T09:02:17.677Z,23
2023-04-12T09:03:20.086Z,23
2023-04-12T09:04:23.710Z,22.8
2023-04-12T09:05:26.101Z,23
2023-04-12T09:06:28.184Z,23.1
2023-04-12T09:07:30.541Z,22.9
2023-04-12T09:08:32.469Z,22.8
2023-04-12T09:09:34.237Z,22.9
2023-04-12T09:42:34.316Z,22.9
2023-04-12T09:43:35.319Z,22.9
2023-04-12T09:44:37.023Z,22.9
2023-04-12T09:45:39.119Z,22.8
2023-04-12T09:46:41.216Z,23
2023-04-12T09:47:43.231Z,22.9
2023-04-12T09:48:45.107Z,23
2023-04-12T09:49:46.994Z,22.9
2023-04-12T09:50:48.870Z,22.8
2023-04-12T10:03:10.070Z,23.1
2023-04-12T10:04:12.143Z,23.1
2023-04-12T10:05:14.659Z,22.9
2023-04-12T10:06:17.211Z,22.9
2023-04-12T10:07:18.971Z,23
2023-04-12T10:08:20.722Z,22.9
2023-04-12T10:09:22.739Z,23
2023-04-12T10:10:24.344Z,22.9
2023-04-12T10:11:26.208Z,23
2023-04-12T10:12:29.499Z,23
2023-04-12T10:13:31.432Z,23
2023-04-12T10:14:33.199Z,23.1
2023-04-12T10:15:34.812Z,23.1
2023-04-12T10:16:36.349Z,23.1
2023-04-12T10:17:38.106Z,23
2023-04-12T10:18:39.963Z,23.1
2023-04-12T10:19:41.631Z,23.1
2023-04-12T10:20:43.421Z,23
2023-04-12T10:26:54.162Z,23
2023-04-12T10:27:56.028Z,23.1
2023-04-12T10:28:58.049Z,23
2023-04-12T10:29:59.752Z,22.9
2023-04-12T10:31:01.733Z,23
2023-04-12T10:32:03.070Z,23
2023-04-12T10:33:05.567Z,23
2023-04-12T10:34:07.559Z,23
2023-04-12T10:35:09.427Z,23
2023-04-12T10:36:11.220Z,22.9
2023-04-12T10:37:13.297Z,23
2023-04-12T11:00:53.258Z,23
2023-04-12T11:01:55.090Z,23
2023-04-12T11:02:57.230Z,23
2023-04-12T11:03:59.784Z,23.1
2023-04-12T11:05:01.666Z,23
2023-04-12T11:06:13.061Z,23
2023-04-12T11:07:08.493Z,23
2023-04-12T11:08:10.404Z,23
2023-04-12T11:09:12.259Z,22.9
2023-04-12T11:10:14.212Z,23
2023-04-12T11:11:16.606Z,23.1
2023-04-12T11:12:18.569Z,23
2023-04-12T11:13:20.525Z,23.1
2023-04-12T11:14:22.470Z,22.9
2023-04-12T11:15:24.241Z,23
2023-04-12T11:16:26.251Z,23.1
2023-04-12T11:17:28.439Z,23
2023-04-12T11:18:30.266Z,23
2023-04-12T11:19:32.250Z,22.9
2023-04-12T11:20:34.139Z,23
2023-04-12T11:21:35.776Z,22.9
2023-04-12T11:22:37.539Z,23.1
2023-04-12T11:23:39.458Z,23
2023-04-12T11:24:41.352Z,23
2023-04-12T11:25:43.346Z,23
2023-04-12T11:26:45.398Z,23
2023-04-12T11:27:47.172Z,22.9
2023-04-12T11:28:49.112Z,23
2023-04-12T11:29:51.024Z,22.9
2023-04-12T11:30:52.700Z,23
2023-04-12T11:31:54.497Z,22.9
2023-04-12T11:32:56.380Z,23
2023-04-12T11:33:58.209Z,23
2023-04-12T11:35:00.060Z,22.9
2023-04-12T11:36:02.093Z,23
2023-04-12T11:37:04.088Z,23.1
2023-04-12T11:38:06.010Z,22.9
2023-04-12T11:39:07.957Z,23.1
2023-04-12T11:40:09.913Z,22.9
2023-04-12T11:41:11.550Z,23.1
2023-04-12T11:42:13.674Z,23
2023-04-12T11:43:15.471Z,23
2023-04-12T11:44:17.259Z,23
2023-04-12T11:45:19.179Z,23.1
2023-04-12T11:46:20.889Z,23.1
2023-04-12T11:47:23.055Z,22.9
2023-04-12T11:48:25.051Z,23
2023-04-12T11:49:26.794Z,23
2023-04-12T11:50:28.713Z,23
2023-04-12T11:51:32.296Z,23
2023-04-12T11:52:34.115Z,23
2023-04-12T11:53:36.058Z,23
2023-04-12T11:54:37.986Z,22.9
2023-04-12T11:55:39.766Z,23
2023-04-12T11:56:41.682Z,23.1
2023-04-12T11:57:43.777Z,23
2023-04-12T11:58:45.621Z,23
2023-04-12T11:59:47.562Z,23
2023-04-12T12:00:49.108Z,23.1
2023-04-12T12:01:51.081Z,23
2023-04-12T12:03:06.533Z,23.1
2023-04-12T12:03:58.345Z,23.1
2023-04-12T12:05:02.133Z,23
2023-04-12T12:06:05.394Z,23
2023-04-12T12:07:08.009Z,23.1
2023-04-12T12:08:10.620Z,23.1
2023-04-12T12:09:12.422Z,23
2023-04-12T12:10:21.069Z,23.1
2023-04-12T12:11:19.124Z,22.9
2023-04-12T12:12:20.999Z,22.9
2023-04-12T12:13:23.280Z,23.1
2023-04-12T12:14:25.193Z,23
2023-04-12T12:15:27.371Z,23.1
2023-04-12T12:16:29.729Z,23
2023-04-12T12:17:32.525Z,23
2023-04-12T12:18:34.623Z,23.3
2023-04-12T12:19:36.732Z,23
2023-04-12T12:20:38.867Z,23
2023-04-12T12:21:40.952Z,23.1
2023-04-12T12:22:43.040Z,23
2023-04-12T12:23:45.186Z,23
2023-04-12T12:24:47.266Z,23.2
2023-04-12T12:25:49.368Z,23.2
2023-04-12T12:26:51.850Z,22.9
2023-04-12T12:27:54.013Z,23
2023-04-12T12:28:56.479Z,23
2023-04-12T12:29:58.691Z,23
2023-04-12T12:31:00.660Z,23
2023-04-12T12:32:02.989Z,23
2023-04-12T12:33:05.129Z,23.1
2023-04-12T12:34:09.162Z,23
2023-04-12T12:35:12.738Z,23
2023-04-12T12:36:14.912Z,23
2023-04-12T12:37:17.197Z,23
2023-04-12T12:38:19.361Z,23.3
2023-04-12T12:39:21.521Z,23.2
2023-04-12T12:40:23.650Z,23.2
2023-04-12T12:41:25.539Z,23.2
2023-04-12T12:42:27.634Z,23
2023-04-12T12:43:29.599Z,23.1
2023-04-12T12:44:31.861Z,23
2023-04-12T12:45:38.896Z,22.9
2023-04-12T12:46:52.381Z,22.9
2023-04-12T12:47:45.966Z,23
2023-04-12T12:48:47.700Z,23
2023-04-12T12:49:49.438Z,23.1
2023-04-12T12:50:51.131Z,23.2
2023-04-12T12:51:52.935Z,23.1
2023-04-12T12:52:54.718Z,23
2023-04-12T12:53:56.604Z,23
2023-04-12T12:54:58.419Z,22.9
2023-04-12T12:56:00.151Z,23
2023-04-12T12:57:02.084Z,23.1
2023-04-12T12:58:07.778Z,23.1
2023-04-12T12:59:08.756Z,23
2023-04-12T13:00:11.012Z,22.9
2023-04-12T13:01:13.210Z,22.9
2023-04-12T13:02:14.873Z,23
2023-04-12T13:03:17.016Z,23
2023-04-12T13:04:19.616Z,22.9
2023-04-12T13:05:21.843Z,23
2023-04-12T13:06:23.644Z,23
2023-04-12T13:32:06.612Z,23
2023-04-12T14:14:17.333Z,22.8
2023-04-12T14:15:19.197Z,22.9
2023-04-12T14:17:22.957Z,23
2023-04-12T14:18:24.863Z,23
2023-04-12T14:19:26.404Z,22.8
2023-04-12T14:32:48.411Z,23.2
2023-04-12T14:33:50.081Z,23
2023-04-12T14:34:51.744Z,23
2023-04-12T14:38:59.103Z,23
2023-04-12T14:40:00.960Z,23
2023-04-12T14:56:30.638Z,22.9
2023-04-12T14:57:36.646Z,23
2023-04-12T14:58:38.484Z,23.1
2023-04-12T14:59:40.460Z,23
2023-04-12T15:00:42.419Z,23.1
2023-04-12T15:01:44.077Z,23
2023-04-12T15:02:46.205Z,23.1
2023-04-12T15:03:48.928Z,23
2023-04-12T15:04:51.274Z,23
2023-04-12T15:05:53.367Z,23.1
2023-04-12T15:06:55.248Z,23.2
2023-04-12T15:08:58.740Z,23.1
2023-04-12T15:19:20.613Z,23.1
2023-04-12T15:20:20.847Z,23.1
2023-04-12T15:21:22.580Z,23
2023-04-12T15:22:24.399Z,23
2023-04-12T15:23:25.809Z,23.1
2023-04-12T15:24:27.787Z,23.1
2023-04-12T15:25:29.616Z,23.1
2023-04-12T15:26:31.728Z,23.2
2023-04-12T15:27:33.696Z,23.2
2023-04-12T15:28:35.760Z,23.1
2023-04-12T15:29:37.393Z,23.1
2023-04-12T15:30:39.300Z,23.1
2023-04-12T15:31:41.060Z,23.1
2023-04-12T15:32:43.012Z,23.1
2023-04-12T15:33:44.791Z,23
2023-04-12T15:34:47.099Z,23
2023-04-12T15:36:50.861Z,23.1
2023-04-12T15:37:53.250Z,23
2023-04-12T15:38:55.671Z,22.8
2023-04-12T15:47:11.337Z,23
2023-04-12T15:48:13.623Z,23
2023-04-12T15:49:15.546Z,23
2023-04-12T15:50:17.727Z,23.2
2023-04-12T16:03:40.303Z,23.1
2023-04-12T16:04:42.375Z,23
2023-04-12T16:05:44.677Z,23.1
2023-04-12T16:06:46.698Z,22.9
2023-04-12T16:07:48.453Z,23.2
2023-04-12T16:08:50.410Z,23
2023-04-12T17:02:19.786Z,23
2023-04-12T17:03:21.537Z,23.1
2023-04-12T17:04:23.570Z,23.1
2023-04-12T17:05:25.488Z,23.3
2023-04-12T17:06:27.467Z,23.1
2023-04-12T17:24:59.416Z,23
2023-04-12T17:55:51.509Z,22.8
2023-04-12T17:56:53.299Z,22.9
2023-04-12T17:57:54.837Z,23.1
2023-04-12T17:58:56.455Z,22.9
2023-04-12T18:02:02.199Z,23.2
2023-04-12T18:03:04.336Z,23
2023-04-12T18:04:06.289Z,23.2
2023-04-12T18:11:18.914Z,23
2023-04-12T18:12:20.829Z,23
2023-04-12T18:13:22.653Z,23
2023-04-12T18:16:27.938Z,23.1
2023-04-12T18:17:29.896Z,23
2023-04-12T18:58:51.018Z,23
2023-04-12T18:59:46.549Z,23
2023-04-12T19:00:48.705Z,23
2023-04-12T19:01:50.890Z,23.2
2023-04-12T19:02:52.917Z,23
2023-04-12T19:03:55.366Z,23.1
2023-04-12T19:04:57.978Z,23.2
2023-04-12T19:06:00.027Z,23
2023-04-12T19:07:01.957Z,23.1
2023-04-12T19:08:03.830Z,23
2023-04-12T19:09:05.867Z,23
2023-04-12T19:10:07.556Z,22.9
2023-04-12T19:11:09.483Z,23.1
2023-04-12T19:12:11.536Z,23
2023-04-12T19:13:13.570Z,23
2023-04-12T19:14:15.598Z,23
2023-04-12T19:15:17.359Z,23
2023-04-12T19:16:19.441Z,23
2023-04-12T19:17:21.892Z,23.2
2023-04-12T19:18:23.972Z,23
2023-04-12T19:19:25.793Z,23.1
2023-04-12T19:20:27.809Z,23
2023-04-12T19:21:29.634Z,23
2023-04-12T19:22:31.604Z,22.9
2023-04-12T19:23:33.292Z,23.1
2023-04-12T19:24:35.127Z,22.9
2023-04-12T19:25:37.107Z,22.9
2023-04-12T19:39:00.402Z,23.1
2023-04-12T20:34:33.905Z,23.1
2023-04-12T20:35:36.052Z,22.8
2023-04-12T20:36:38.192Z,23
2023-04-12T20:37:39.930Z,23.1
2023-04-12T20:38:41.846Z,23
2023-04-12T20:39:43.930Z,22.9
2023-04-12T20:40:45.649Z,23
2023-04-12T20:41:47.599Z,23
2023-04-12T20:42:49.710Z,23.1
2023-04-12T20:43:51.912Z,22.9
2023-04-12T20:44:54.003Z,23
2023-04-12T20:45:55.931Z,23
2023-04-12T20:46:57.945Z,23
2023-04-12T20:48:00.411Z,23
2023-04-12T20:49:02.454Z,22.9
2023-04-12T20:50:04.279Z,22.8
2023-04-12T20:51:06.088Z,23
2023-04-12T20:52:07.687Z,23.2
2023-04-12T21:02:24.912Z,23
2023-04-12T21:03:27.057Z,23
2023-04-12T21:04:29.122Z,22.9
2023-04-12T21:05:30.917Z,23
2023-04-12T21:06:32.715Z,22.9
2023-04-12T22:35:08.003Z,23.1
2023-04-12T22:36:06.813Z,23.2
2023-04-12T22:37:08.802Z,23
2023-04-12T22:38:10.579Z,23.1
2023-04-12T22:39:12.467Z,22.9
2023-04-12T22:40:14.607Z,22.9
2023-04-12T22:41:16.464Z,23
2023-04-12T22:42:18.327Z,23.1
2023-04-12T22:43:20.084Z,23
2023-04-12T22:44:21.706Z,23
2023-04-12T22:45:23.787Z,23
2023-04-12T22:46:25.746Z,23
2023-04-12T22:47:27.858Z,23
2023-04-12T22:48:29.383Z,23.1
